Time;durP1;ratioP1;P1;durP2;ratioP2;P2;SDS_P1;SDS_P2;PMS_P1;PMS_P2;Temp;Humidity;BMP_temperature;BMP_pressure;BME280_temperature;BME280_humidity;BME280_pressure;Samples;Min_cycle;Max_cycle;Signal;HPM_P1;HPM_P2
2020/12/21 00:02:21;;;;;;;19.13;5.32;;;6.30;99.90;;;;;;5065937;28;20380;-69
2020/12/21 00:04:46;;;;;;;10.60;5.22;;;6.30;99.90;;;;;;5065565;28;20025;-69
2020/12/21 00:07:12;;;;;;;13.25;4.90;;;6.40;99.90;;;;;;5063092;28;20043;-69
2020/12/21 00:09:37;;;;;;;26.73;6.18;;;6.40;99.90;;;;;;5062449;28;20041;-68
2020/12/21 00:12:03;;;;;;;11.93;4.43;;;6.30;99.90;;;;;;5068511;28;20108;-68
2020/12/21 00:14:28;;;;;;;15.32;4.82;;;6.30;99.90;;;;;;5067521;28;20036;-68
2020/12/21 00:16:55;;;;;;;10.85;5.10;;;6.30;99.90;;;;;;5070363;28;20421;-69
2020/12/21 00:19:21;;;;;;;12.73;4.90;;;6.30;99.90;;;;;;5069394;28;20039;-69
2020/12/21 00:21:48;;;;;;;12.73;5.25;;;6.20;99.90;;;;;;5058543;28;20029;-69
2020/12/21 00:24:14;;;;;;;18.63;5.80;;;6.20;99.90;;;;;;5067483;28;20032;-69
2020/12/21 00:26:47;;;;;;;15.63;4.43;;;6.20;99.90;;;;;;5064581;28;20025;-69
2020/12/21 00:29:14;;;;;;;12.80;4.65;;;6.10;99.90;;;;;;5064729;28;20091;-69
2020/12/21 00:31:39;;;;;;;13.40;3.63;;;6.20;99.90;;;;;;5064832;28;20039;-68
2020/12/21 00:34:06;;;;;;;15.32;4.38;;;6.20;99.90;;;;;;5059719;28;20017;-69
2020/12/21 00:36:35;;;;;;;12.95;4.57;;;6.20;99.90;;;;;;5060478;28;20349;-69
2020/12/21 00:39:00;;;;;;;16.02;4.78;;;6.20;99.90;;;;;;5061938;28;20046;-69
2020/12/21 00:41:26;;;;;;;23.38;5.07;;;6.20;99.90;;;;;;5059253;28;20555;-69
2020/12/21 00:43:51;;;;;;;15.93;4.57;;;6.20;99.90;;;;;;5066468;28;20051;-69
2020/12/21 00:46:20;;;;;;;11.18;3.72;;;6.20;99.90;;;;;;5059704;28;20028;-69
2020/12/21 00:48:46;;;;;;;17.50;5.18;;;6.30;99.90;;;;;;5069021;28;20044;-69
2020/12/21 00:51:13;;;;;;;16.90;5.32;;;6.20;99.90;;;;;;5059973;28;20025;-69
2020/12/21 00:53:38;;;;;;;11.73;4.25;;;6.50;99.90;;;;;;5068782;28;20132;-69
2020/12/21 00:56:05;;;;;;;15.95;4.03;;;6.30;99.90;;;;;;5071032;28;20532;-68
2020/12/21 00:58:32;;;;;;;15.77;4.75;;;6.30;99.90;;;;;;5063948;28;20449;-69
2020/12/21 01:00:59;;;;;;;17.08;4.20;;;6.30;99.90;;;;;;5062976;28;20126;-69
2020/12/21 01:03:25;;;;;;;16.75;4.00;;;6.30;99.90;;;;;;5062976;28;20158;-68
2020/12/21 01:05:53;;;;;;;17.10;5.55;;;6.30;99.90;;;;;;5067707;28;20111;-68
2020/12/21 01:08:18;;;;;;;12.55;4.82;;;6.20;99.90;;;;;;5058061;28;20037;-68
2020/12/21 01:10:44;;;;;;;10.82;4.18;;;6.20;99.90;;;;;;5062859;28;20033;-69
2020/12/21 01:13:09;;;;;;;11.13;3.60;;;6.20;99.90;;;;;;5068293;28;20373;-68
2020/12/21 01:15:35;;;;;;;12.18;3.92;;;6.20;99.90;;;;;;5067901;28;20028;-69
2020/12/21 01:18:00;;;;;;;16.05;4.18;;;6.20;99.90;;;;;;5058013;28;20104;-69
2020/12/21 01:20:26;;;;;;;16.55;4.15;;;6.20;99.90;;;;;;5064823;28;20078;-69
2020/12/21 01:22:51;;;;;;;14.50;3.65;;;6.20;99.90;;;;;;5064102;28;20428;-69
2020/12/21 01:25:17;;;;;;;15.48;4.78;;;6.10;99.90;;;;;;5063580;28;20031;-69
2020/12/21 01:27:42;;;;;;;10.15;3.53;;;6.10;99.90;;;;;;5061985;28;20365;-69
2020/12/21 01:30:08;;;;;;;20.63;5.95;;;6.00;99.90;;;;;;5063347;28;20493;-69
2020/12/21 01:32:33;;;;;;;16.45;4.80;;;6.00;99.90;;;;;;5061080;28;20052;-69
2020/12/21 01:34:59;;;;;;;10.68;3.83;;;5.90;99.90;;;;;;5065928;28;20036;-69
2020/12/21 01:37:24;;;;;;;13.93;3.95;;;5.90;99.90;;;;;;5061587;28;20024;-69
2020/12/21 01:39:50;;;;;;;19.42;4.93;;;5.90;99.90;;;;;;5060130;28;20076;-69
2020/12/21 01:42:16;;;;;;;13.02;3.95;;;5.80;99.90;;;;;;5058948;28;20460;-68
2020/12/21 01:44:49;;;;;;;18.92;4.03;;;5.80;99.90;;;;;;5066786;28;20465;-69
2020/12/21 01:47:19;;;;;;;10.73;3.80;;;5.80;99.90;;;;;;5059078;28;20059;-70
2020/12/21 01:49:46;;;;;;;14.68;3.83;;;5.80;99.90;;;;;;5066376;28;20047;-69
2020/12/21 01:52:17;;;;;;;17.20;4.25;;;5.80;99.90;;;;;;5065631;28;20079;-68
2020/12/21 01:54:45;;;;;;;25.55;5.32;;;5.80;99.90;;;;;;5067566;28;20028;-68
2020/12/21 01:57:10;;;;;;;19.42;4.35;;;5.80;99.90;;;;;;5065415;28;20060;-69
2020/12/21 01:59:36;;;;;;;15.63;4.00;;;5.70;99.90;;;;;;5062059;28;20037;-69
2020/12/21 02:02:01;;;;;;;16.15;4.45;;;5.70;99.90;;;;;;5065080;28;20108;-69
2020/12/21 02:04:27;;;;;;;8.27;3.75;;;5.70;99.90;;;;;;5060847;28;20039;-69
2020/12/21 02:06:54;;;;;;;11.90;4.45;;;5.70;99.90;;;;;;5065122;28;20021;-69
2020/12/21 02:09:20;;;;;;;15.55;3.72;;;5.80;99.90;;;;;;5062976;28;20037;-69
2020/12/21 02:11:46;;;;;;;16.98;4.10;;;5.70;99.90;;;;;;5060400;28;20457;-69
2020/12/21 02:14:11;;;;;;;16.00;4.13;;;5.70;99.90;;;;;;5065124;28;20473;-68
2020/12/21 02:16:37;;;;;;;13.02;4.35;;;5.80;99.90;;;;;;5058882;28;20036;-69
2020/12/21 02:19:03;;;;;;;11.73;3.45;;;5.80;99.90;;;;;;5062468;28;20039;-68
2020/12/21 02:21:29;;;;;;;12.77;4.07;;;5.80;99.90;;;;;;5062742;28;20036;-68
2020/12/21 02:23:55;;;;;;;15.13;4.05;;;5.90;99.90;;;;;;5059550;28;20163;-69
2020/12/21 02:26:20;;;;;;;15.23;4.50;;;5.90;99.90;;;;;;5061087;28;20033;-69
2020/12/21 02:28:57;;;;;;;14.13;4.93;;;5.90;99.90;;;;;;5065875;28;20503;-69
2020/12/21 02:31:23;;;;;;;18.10;3.90;;;5.90;99.90;;;;;;5062423;28;20063;-69
2020/12/21 02:33:48;;;;;;;17.08;4.40;;;5.90;99.90;;;;;;5060231;28;20118;-69
2020/12/21 02:36:14;;;;;;;15.13;4.30;;;5.90;99.90;;;;;;5059635;28;20421;-69
2020/12/21 02:38:41;;;;;;;14.15;4.40;;;6.00;99.90;;;;;;5061900;28;20055;-68
2020/12/21 02:41:07;;;;;;;18.35;4.03;;;5.90;99.90;;;;;;5062822;28;20048;-69
2020/12/21 02:43:33;;;;;;;13.63;4.28;;;5.90;99.90;;;;;;5065745;28;20028;-69
2020/12/21 02:45:59;;;;;;;19.08;3.80;;;5.90;99.90;;;;;;5059707;28;20099;-69
2020/12/21 02:48:24;;;;;;;17.52;4.20;;;5.90;99.90;;;;;;5065783;28;20488;-69
2020/12/21 02:50:50;;;;;;;14.70;5.20;;;5.90;99.90;;;;;;5065692;28;20477;-68
2020/12/21 02:53:16;;;;;;;13.82;4.15;;;5.90;99.90;;;;;;5064257;28;20457;-69
2020/12/21 02:55:43;;;;;;;13.02;3.85;;;5.90;99.90;;;;;;5062211;28;20369;-69
2020/12/21 02:58:08;;;;;;;16.13;3.88;;;5.80;99.90;;;;;;5061708;28;20040;-69
2020/12/21 03:00:34;;;;;;;9.85;3.78;;;5.80;99.90;;;;;;5066073;28;20028;-68
2020/12/21 03:03:04;;;;;;;14.90;4.13;;;5.80;99.90;;;;;;5061438;28;20116;-69
2020/12/21 03:05:34;;;;;;;16.92;4.43;;;5.70;99.90;;;;;;5061741;28;20123;-69
2020/12/21 03:08:01;;;;;;;12.50;3.88;;;5.70;99.90;;;;;;5065589;28;20400;-68
2020/12/21 03:10:27;;;;;;;13.57;4.03;;;5.80;99.90;;;;;;5065702;28;20090;-69
2020/12/21 03:12:53;;;;;;;14.13;3.60;;;5.80;99.90;;;;;;5068121;28;20035;-69
2020/12/21 03:15:19;;;;;;;14.32;3.53;;;5.80;99.90;;;;;;5066115;28;20404;-69
2020/12/21 03:17:44;;;;;;;9.18;3.78;;;5.80;99.90;;;;;;5065780;28;20032;-69
2020/12/21 03:20:10;;;;;;;10.90;3.75;;;5.70;99.90;;;;;;5063266;28;20116;-69
2020/12/21 03:22:35;;;;;;;10.93;3.40;;;5.80;99.90;;;;;;5072656;28;20025;-69
2020/12/21 03:25:01;;;;;;;8.90;3.15;;;5.70;99.90;;;;;;5064493;28;20029;-69
2020/12/21 03:27:27;;;;;;;12.20;3.35;;;5.70;99.90;;;;;;5059311;28;20025;-69
2020/12/21 03:29:53;;;;;;;12.73;4.32;;;5.60;99.90;;;;;;5061417;28;20119;-68
2020/12/21 03:32:18;;;;;;;14.43;3.85;;;5.70;99.90;;;;;;5064213;28;20417;-68
2020/12/21 03:34:44;;;;;;;7.65;2.95;;;5.60;99.90;;;;;;5062633;28;20024;-68
2020/12/21 03:37:10;;;;;;;9.57;2.97;;;5.60;99.90;;;;;;5062401;28;20116;-67
2020/12/21 03:39:36;;;;;;;10.70;3.75;;;5.60;99.90;;;;;;5065662;28;20029;-68
2020/12/21 03:42:02;;;;;;;10.73;3.40;;;5.60;99.90;;;;;;5067223;28;20055;-68
2020/12/21 03:44:28;;;;;;;12.45;3.15;;;5.50;99.90;;;;;;5058335;28;20066;-68
2020/12/21 03:46:54;;;;;;;18.02;3.63;;;5.50;99.90;;;;;;5066692;28;20112;-68
2020/12/21 03:49:19;;;;;;;18.92;4.03;;;5.50;99.90;;;;;;5064112;28;20124;-68
2020/12/21 03:51:45;;;;;;;11.20;3.10;;;5.50;99.90;;;;;;5065404;28;20020;-68
2020/12/21 03:54:10;;;;;;;7.03;3.38;;;5.50;99.90;;;;;;5066949;28;20033;-68
2020/12/21 03:56:36;;;;;;;12.95;3.33;;;5.40;99.90;;;;;;5067120;28;20055;-68
2020/12/21 03:59:02;;;;;;;13.68;3.22;;;5.40;99.90;;;;;;5064253;28;20032;-68
2020/12/21 04:01:27;;;;;;;11.63;3.38;;;5.40;99.90;;;;;;5058438;28;20025;-68
2020/12/21 04:03:53;;;;;;;13.57;3.42;;;5.40;99.90;;;;;;5062646;28;20052;-68
2020/12/21 04:06:19;;;;;;;10.73;3.30;;;5.40;99.90;;;;;;5064863;28;20033;-68
2020/12/21 04:08:44;;;;;;;18.05;3.95;;;5.40;99.90;;;;;;5065115;28;20033;-68
2020/12/21 04:11:10;;;;;;;11.77;4.18;;;5.40;99.90;;;;;;5063729;28;20024;-68
2020/12/21 04:13:35;;;;;;;7.28;3.20;;;5.40;99.90;;;;;;5061216;28;20049;-68
2020/12/21 04:16:01;;;;;;;11.52;3.28;;;5.50;99.90;;;;;;5060138;28;20020;-68
2020/12/21 04:18:27;;;;;;;10.85;3.67;;;5.40;99.90;;;;;;5066377;28;20384;-68
2020/12/21 04:20:52;;;;;;;19.02;3.90;;;5.40;99.90;;;;;;5061280;28;20074;-68
2020/12/21 04:23:18;;;;;;;7.00;3.13;;;5.50;99.90;;;;;;5069809;28;20692;-68
2020/12/21 04:25:43;;;;;;;14.90;3.97;;;5.50;99.90;;;;;;5069427;28;20032;-69
2020/12/21 04:28:09;;;;;;;9.95;3.22;;;5.50;99.90;;;;;;5057447;28;20025;-69
2020/12/21 04:30:35;;;;;;;11.85;3.60;;;5.50;99.90;;;;;;5062475;28;20036;-68
2020/12/21 04:33:00;;;;;;;18.42;4.05;;;5.50;99.90;;;;;;5065442;28;20027;-68
2020/12/21 04:35:26;;;;;;;12.88;4.18;;;5.50;99.90;;;;;;5064710;28;20111;-68
2020/12/21 04:37:51;;;;;;;14.85;4.30;;;5.50;99.90;;;;;;5069968;28;20024;-68
2020/12/21 04:40:18;;;;;;;12.73;4.63;;;5.60;99.90;;;;;;5059888;28;20036;-68
2020/12/21 04:42:49;;;;;;;13.73;4.10;;;5.60;99.90;;;;;;5064661;28;20119;-68
2020/12/21 04:45:17;;;;;;;21.52;5.10;;;5.60;99.90;;;;;;5063771;28;20465;-68
2020/12/21 04:47:43;;;;;;;9.93;4.63;;;5.60;99.90;;;;;;5060165;28;20107;-68
2020/12/21 04:50:14;;;;;;;10.80;4.10;;;5.50;99.90;;;;;;5063444;28;20051;-68
2020/12/21 04:52:49;;;;;;;13.68;3.70;;;5.60;99.90;;;;;;5063408;28;20028;-68
2020/12/21 04:55:22;;;;;;;14.70;4.00;;;5.60;99.90;;;;;;5065977;28;20036;-68
2020/12/21 04:57:54;;;;;;;13.90;4.70;;;5.60;99.90;;;;;;5060837;28;20178;-68
2020/12/21 05:00:21;;;;;;;11.98;4.47;;;5.60;99.90;;;;;;5055826;28;20047;-68
2020/12/21 05:02:46;;;;;;;15.93;4.45;;;5.60;99.90;;;;;;5060592;28;20092;-69
2020/12/21 05:05:12;;;;;;;6.60;3.88;;;5.60;99.90;;;;;;5066521;28;20056;-68
2020/12/21 05:07:37;;;;;;;9.82;4.07;;;5.60;99.90;;;;;;5065610;28;20426;-68
2020/12/21 05:10:07;;;;;;;9.88;4.15;;;5.60;99.90;;;;;;5058512;28;20032;-68
2020/12/21 05:12:33;;;;;;;17.83;6.40;;;5.60;99.90;;;;;;5059783;28;20032;-68
2020/12/21 05:14:59;;;;;;;16.52;4.93;;;5.60;99.90;;;;;;5066987;28;20746;-68
2020/12/21 05:17:25;;;;;;;15.95;4.25;;;5.60;99.90;;;;;;5063599;28;20039;-68
2020/12/21 05:20:02;;;;;;;21.95;6.20;;;5.50;99.90;;;;;;5067042;28;20037;-68
2020/12/21 05:22:28;;;;;;;12.05;4.53;;;5.60;99.90;;;;;;5064209;28;20029;-68
2020/12/21 05:25:06;;;;;;;16.02;4.72;;;5.60;99.90;;;;;;5065472;28;20477;-68
2020/12/21 05:27:32;;;;;;;13.00;5.13;;;5.60;99.90;;;;;;5058721;28;20128;-68
2020/12/21 05:29:58;;;;;;;11.18;4.28;;;5.60;99.90;;;;;;5063015;28;20484;-68
2020/12/21 05:32:23;;;;;;;14.35;4.80;;;5.60;99.90;;;;;;5063641;28;20031;-68
2020/12/21 05:34:49;;;;;;;19.50;4.45;;;5.60;99.90;;;;;;5064991;28;20029;-68
2020/12/21 05:37:17;;;;;;;18.92;5.45;;;5.50;99.90;;;;;;5060254;28;20108;-68
2020/12/21 05:39:54;;;;;;;21.10;6.88;;;5.60;99.90;;;;;;5060632;28;20126;-68
2020/12/21 05:42:22;;;;;;;17.80;6.03;;;5.60;99.90;;;;;;5060297;28;20033;-68
2020/12/21 05:44:59;;;;;;;12.77;4.22;;;5.60;99.90;;;;;;5060658;28;20078;-68
2020/12/21 05:47:28;;;;;;;14.52;4.63;;;5.60;99.90;;;;;;5065550;28;20086;-68
2020/12/21 05:49:58;;;;;;;10.23;3.88;;;5.60;99.90;;;;;;5065239;28;20485;-68
2020/12/21 05:52:32;;;;;;;8.57;4.13;;;5.60;99.90;;;;;;5059952;28;20477;-69
2020/12/21 05:55:11;;;;;;;10.73;4.65;;;5.60;99.90;;;;;;5059911;28;20051;-68
2020/12/21 05:57:38;;;;;;;14.38;4.88;;;5.60;99.90;;;;;;5071970;28;20035;-68
2020/12/21 06:00:11;;;;;;;16.35;5.05;;;5.60;99.90;;;;;;5059982;28;20032;-69
2020/12/21 06:02:37;;;;;;;13.98;4.53;;;5.60;99.90;;;;;;5080969;28;20051;-68
2020/12/21 06:05:05;;;;;;;17.27;4.63;;;5.60;99.90;;;;;;5085225;28;20056;-68
2020/12/21 06:07:33;;;;;;;11.77;4.75;;;5.60;99.90;;;;;;5079615;28;20027;-68
2020/12/21 06:10:02;;;;;;;13.60;4.78;;;5.50;99.90;;;;;;5074571;28;20036;-68
2020/12/21 06:12:33;;;;;;;11.43;5.35;;;5.50;99.90;;;;;;5070609;28;20028;-68
2020/12/21 06:15:07;;;;;;;11.90;4.43;;;5.50;99.90;;;;;;5075029;28;20101;-68
2020/12/21 06:17:35;;;;;;;14.23;4.20;;;5.50;99.90;;;;;;5077527;28;20035;-69
2020/12/21 06:20:07;;;;;;;14.52;4.03;;;5.50;99.90;;;;;;5082266;28;20024;-68
2020/12/21 06:22:33;;;;;;;12.40;4.68;;;5.50;99.90;;;;;;5085431;28;20043;-68
2020/12/21 06:24:58;;;;;;;15.30;4.00;;;5.50;99.90;;;;;;5076613;28;20032;-68
2020/12/21 06:27:24;;;;;;;13.40;4.20;;;5.60;99.90;;;;;;5084266;28;20032;-68
2020/12/21 06:29:59;;;;;;;21.48;4.30;;;5.60;99.90;;;;;;5080954;28;20123;-68
2020/12/21 06:32:31;;;;;;;11.65;4.00;;;5.60;99.90;;;;;;5077251;28;20365;-68
2020/12/21 06:34:58;;;;;;;16.33;4.43;;;5.70;99.90;;;;;;5089011;28;20105;-68
2020/12/21 06:37:24;;;;;;;13.27;4.18;;;5.60;99.90;;;;;;5080646;28;20133;-68
2020/12/21 06:40:03;;;;;;;13.85;4.43;;;5.60;99.90;;;;;;5087627;28;20500;-68
2020/12/21 06:42:29;;;;;;;14.30;4.55;;;5.70;99.90;;;;;;5078028;28;20021;-69
2020/12/21 06:44:55;;;;;;;10.45;3.47;;;5.70;99.90;;;;;;5091310;28;20026;-69
2020/12/21 06:47:26;;;;;;;17.27;4.25;;;5.70;99.90;;;;;;5076089;28;20032;-69
2020/12/21 06:49:52;;;;;;;15.68;5.25;;;5.80;99.90;;;;;;5088339;28;20039;-68
2020/12/21 06:52:18;;;;;;;9.27;3.78;;;5.80;99.90;;;;;;5081487;28;20036;-69
2020/12/21 06:54:44;;;;;;;11.43;3.60;;;5.80;99.90;;;;;;5084038;28;20036;-69
2020/12/21 06:57:10;;;;;;;10.20;3.75;;;5.90;99.90;;;;;;5080490;28;20072;-69
2020/12/21 06:59:36;;;;;;;18.13;4.20;;;5.80;99.90;;;;;;5089481;28;20515;-69
2020/12/21 07:02:02;;;;;;;8.35;3.47;;;5.80;99.90;;;;;;5079579;28;20025;-67
2020/12/21 07:04:32;;;;;;;18.60;4.50;;;5.90;99.90;;;;;;5080086;28;20027;-68
2020/12/21 07:07:01;;;;;;;;;;;5.90;99.90;;;;;;5079446;28;20040;-68
2020/12/21 07:09:28;;;;;;;13.88;4.60;;;6.00;99.90;;;;;;5077879;28;20332;-68
2020/12/21 07:12:03;;;;;;;10.85;3.67;;;6.00;99.90;;;;;;5077795;28;20043;-68
2020/12/21 07:14:30;;;;;;;12.10;3.88;;;6.00;99.90;;;;;;5080876;28;20082;-68
2020/12/21 07:17:09;;;;;;;9.68;3.75;;;6.00;99.90;;;;;;5076967;28;20024;-68
2020/12/21 07:19:36;;;;;;;7.15;3.30;;;6.00;99.90;;;;;;5082780;28;20083;-67
2020/12/21 07:22:06;;;;;;;7.15;3.42;;;6.00;99.90;;;;;;5080077;28;20020;-67
2020/12/21 07:24:31;;;;;;;8.30;3.37;;;6.10;99.90;;;;;;5080646;28;20055;-68
2020/12/21 07:26:57;;;;;;;15.32;3.90;;;6.10;99.90;;;;;;5083919;28;20048;-67
2020/12/21 07:29:23;;;;;;;11.60;3.88;;;6.10;99.90;;;;;;5080314;28;20040;-69
2020/12/21 07:31:49;;;;;;;9.73;3.92;;;6.10;99.90;;;;;;5087232;28;20069;-69
2020/12/21 07:34:15;;;;;;;13.95;3.72;;;6.10;99.90;;;;;;5082379;28;20040;-68
2020/12/21 07:36:42;;;;;;;18.05;3.92;;;6.20;99.90;;;;;;5088793;28;20077;-68
2020/12/21 07:39:08;;;;;;;8.07;4.07;;;6.20;99.90;;;;;;5087747;28;20540;-70
2020/12/21 07:41:37;;;;;;;8.90;3.45;;;6.20;99.90;;;;;;5081460;28;20127;-67
2020/12/21 07:44:12;;;;;;;22.17;4.55;;;6.20;99.90;;;;;;5088635;28;20059;-67
2020/12/21 07:46:44;;;;;;;15.35;3.72;;;6.30;99.90;;;;;;5082131;28;20020;-67
2020/12/21 07:49:11;;;;;;;12.13;4.05;;;6.30;99.90;;;;;;5078697;28;20079;-67
2020/12/21 07:51:41;;;;;;;13.30;4.82;;;6.40;99.90;;;;;;5073799;28;20036;-68
2020/12/21 07:54:07;;;;;;;13.33;5.20;;;6.40;99.90;;;;;;5059667;28;20476;-68
2020/12/21 07:56:32;;;;;;;9.18;4.60;;;6.40;99.90;;;;;;5068875;28;20029;-68
2020/12/21 07:58:58;;;;;;;9.02;4.18;;;6.50;99.90;;;;;;5061830;28;20021;-68
2020/12/21 08:01:24;;;;;;;14.30;4.18;;;6.50;99.90;;;;;;5062693;28;20069;-68
2020/12/21 08:03:52;;;;;;;21.17;4.95;;;6.60;99.90;;;;;;5058043;28;20428;-67
2020/12/21 08:06:22;;;;;;;12.27;3.97;;;6.60;99.90;;;;;;5067257;28;20100;-67
2020/12/21 08:08:48;;;;;;;11.27;4.63;;;6.50;99.90;;;;;;5061901;28;20048;-68
2020/12/21 08:11:16;;;;;;;16.80;4.65;;;6.60;99.90;;;;;;5060182;28;20029;-68
2020/12/21 08:13:49;;;;;;;11.55;5.15;;;6.60;99.90;;;;;;5074896;28;20039;-68
2020/12/21 08:16:14;;;;;;;18.13;4.50;;;6.70;99.90;;;;;;5079159;28;20031;-68
2020/12/21 08:18:45;;;;;;;12.10;4.95;;;6.70;99.90;;;;;;5058323;28;20385;-66
2020/12/21 08:21:14;;;;;;;14.40;4.80;;;6.80;99.90;;;;;;5063888;28;20492;-68
2020/12/21 08:23:40;;;;;;;18.17;7.18;;;6.80;99.90;;;;;;5078935;28;20033;-68
2020/12/21 08:26:13;;;;;;;13.70;5.68;;;6.80;99.90;;;;;;5068725;28;20040;-68
2020/12/21 08:28:39;;;;;;;22.58;5.35;;;6.80;99.90;;;;;;5060514;28;20036;-68
2020/12/21 08:31:14;;;;;;;17.80;6.65;;;6.90;99.90;;;;;;5053383;28;20032;-68
2020/12/21 08:33:59;;;;;;;12.32;5.43;;;6.90;99.90;;;;;;5058422;28;20131;-67
2020/12/21 08:36:27;;;;;;;13.20;5.40;;;6.90;99.90;;;;;;5062301;28;20029;-67
2020/12/21 08:39:03;;;;;;;8.38;5.68;;;6.90;99.90;;;;;;5053075;28;20030;-68
2020/12/21 08:41:34;;;;;;;20.15;7.38;;;6.90;99.90;;;;;;5043688;28;537951;-67
2020/12/21 08:44:00;;;;;;;14.57;6.35;;;6.90;99.90;;;;;;5066749;28;20039;-67
2020/12/21 08:46:25;;;;;;;16.02;6.57;;;7.00;99.90;;;;;;5071009;28;20029;-67
2020/12/21 08:48:51;;;;;;;14.48;6.47;;;7.00;99.90;;;;;;5092119;28;20361;-67
2020/12/21 08:51:16;;;;;;;15.90;6.55;;;7.10;99.90;;;;;;5077281;28;20050;-67
2020/12/21 08:53:42;;;;;;;14.25;6.85;;;7.10;99.90;;;;;;5078275;28;20079;-69
2020/12/21 08:56:11;;;;;;;14.90;6.18;;;7.10;99.90;;;;;;5082854;28;20111;-67
2020/12/21 08:58:37;;;;;;;17.17;6.53;;;7.10;99.90;;;;;;5090847;28;20047;-67
2020/12/21 09:01:04;;;;;;;16.40;6.25;;;7.10;99.90;;;;;;5090268;28;20424;-67
2020/12/21 09:03:30;;;;;;;15.48;6.50;;;7.20;99.90;;;;;;5076218;28;20032;-68
2020/12/21 09:05:56;;;;;;;15.68;6.65;;;7.20;99.90;;;;;;5090444;28;20020;-68
2020/12/21 09:08:22;;;;;;;11.18;6.45;;;7.20;99.90;;;;;;5089404;28;20810;-68
2020/12/21 09:10:48;;;;;;;13.43;5.97;;;7.20;99.90;;;;;;5074702;28;20147;-68
2020/12/21 09:13:13;;;;;;;18.38;7.35;;;7.20;99.90;;;;;;5080418;28;20025;-68
2020/12/21 09:15:39;;;;;;;15.70;6.60;;;7.30;99.90;;;;;;5071347;28;20029;-68
2020/12/21 09:18:05;;;;;;;15.52;6.38;;;7.30;99.90;;;;;;5083799;28;20126;-68
2020/12/21 09:20:30;;;;;;;14.05;6.55;;;7.30;99.90;;;;;;5089949;28;20464;-68
2020/12/21 09:22:56;;;;;;;11.65;6.03;;;7.30;99.90;;;;;;5071594;28;20020;-68
2020/12/21 09:25:22;;;;;;;18.33;6.50;;;7.30;99.90;;;;;;5071194;28;20499;-68
2020/12/21 09:27:47;;;;;;;13.10;5.88;;;7.40;99.90;;;;;;5070317;28;20033;-68
2020/12/21 09:30:13;;;;;;;11.02;6.05;;;7.40;99.90;;;;;;5071273;28;20029;-67
2020/12/21 09:32:38;;;;;;;19.25;6.53;;;7.40;99.90;;;;;;5082091;28;20620;-69
2020/12/21 09:35:04;;;;;;;13.45;6.18;;;7.40;99.90;;;;;;5091109;28;20488;-68
2020/12/21 09:37:30;;;;;;;16.08;6.53;;;7.40;99.90;;;;;;5091582;28;20024;-68
2020/12/21 09:39:55;;;;;;;12.75;6.00;;;7.40;99.90;;;;;;5091656;28;20039;-67
2020/12/21 09:42:21;;;;;;;12.88;6.70;;;7.40;99.90;;;;;;5087645;28;20036;-68
2020/12/21 09:44:49;;;;;;;14.02;6.75;;;7.40;99.90;;;;;;5091869;28;20016;-68
2020/12/21 09:47:14;;;;;;;12.80;6.45;;;7.40;99.90;;;;;;5091890;28;20074;-68
2020/12/21 09:49:40;;;;;;;17.15;6.88;;;7.50;99.90;;;;;;5091254;28;20036;-70
2020/12/21 09:52:05;;;;;;;19.48;6.38;;;7.50;99.90;;;;;;5091751;28;20012;-69
2020/12/21 09:54:31;;;;;;;15.60;6.68;;;7.50;99.90;;;;;;5091534;28;20012;-67
2020/12/21 09:56:57;;;;;;;14.95;6.57;;;7.50;99.90;;;;;;5090721;28;20092;-68
2020/12/21 09:59:22;;;;;;;11.80;6.43;;;7.50;99.90;;;;;;5091014;28;20428;-68
2020/12/21 10:01:48;;;;;;;19.00;6.45;;;7.50;99.90;;;;;;5090291;28;20181;-66
2020/12/21 10:04:13;;;;;;;15.63;6.05;;;7.60;99.90;;;;;;5070809;28;20060;-68
2020/12/21 10:06:39;;;;;;;13.02;5.55;;;7.60;99.90;;;;;;5071762;28;20477;-69
2020/12/21 10:09:05;;;;;;;17.75;6.05;;;7.60;99.90;;;;;;5071113;28;20032;-68
2020/12/21 10:11:30;;;;;;;12.63;5.00;;;7.60;99.90;;;;;;5069473;28;20484;-69
2020/12/21 10:13:56;;;;;;;10.27;5.20;;;7.70;99.90;;;;;;5081538;28;20030;-68
2020/12/21 10:16:21;;;;;;;18.05;6.38;;;7.70;99.90;;;;;;5091278;28;20020;-68
2020/12/21 10:18:47;;;;;;;13.25;5.75;;;7.70;99.90;;;;;;5084123;28;20028;-69
2020/12/21 10:21:13;;;;;;;12.32;4.80;;;7.80;99.90;;;;;;5071339;28;20330;-71
2020/12/21 10:23:38;;;;;;;9.82;4.97;;;7.80;99.90;;;;;;5070476;28;20103;-68
2020/12/21 10:26:04;;;;;;;11.32;4.63;;;7.80;99.90;;;;;;5071267;28;20025;-69
2020/12/21 10:28:30;;;;;;;10.93;4.32;;;7.80;99.90;;;;;;5079302;28;20020;-69
2020/12/21 10:30:55;;;;;;;12.68;4.75;;;7.80;99.90;;;;;;5090885;28;20051;-67
2020/12/21 10:33:21;;;;;;;14.88;4.38;;;7.80;99.90;;;;;;5091093;28;20464;-68
2020/12/21 10:35:46;;;;;;;10.32;4.18;;;7.80;99.90;;;;;;5085044;28;20024;-67
2020/12/21 10:38:12;;;;;;;16.75;4.15;;;7.80;99.90;;;;;;5088868;28;20028;-67
2020/12/21 10:40:37;;;;;;;18.42;4.32;;;7.70;99.90;;;;;;5089782;28;20449;-67
2020/12/21 10:43:03;;;;;;;10.15;3.55;;;7.90;99.90;;;;;;5089572;28;20020;-67
2020/12/21 10:45:28;;;;;;;12.52;4.20;;;7.90;99.90;;;;;;5089628;28;20035;-67
2020/12/21 10:47:54;;;;;;;10.32;4.15;;;7.90;99.90;;;;;;5086290;28;20016;-67
2020/12/21 10:50:19;;;;;;;12.88;3.20;;;7.90;99.90;;;;;;5087486;28;20476;-67
2020/12/21 10:52:45;;;;;;;4.43;3.63;;;7.90;99.90;;;;;;5084558;28;20478;-67
2020/12/21 10:55:11;;;;;;;12.48;4.18;;;7.90;99.90;;;;;;5087498;28;20020;-67
2020/12/21 10:57:37;;;;;;;8.65;3.63;;;7.90;99.90;;;;;;5089042;28;20019;-67
2020/12/21 11:00:05;;;;;;;10.98;3.20;;;7.90;99.90;;;;;;5089078;28;20020;-67
2020/12/21 11:02:31;;;;;;;7.90;3.38;;;8.00;99.90;;;;;;5080818;28;20028;-68
2020/12/21 11:04:56;;;;;;;9.15;3.88;;;8.00;99.90;;;;;;5071159;28;20732;-66
2020/12/21 11:07:22;;;;;;;7.70;3.30;;;8.00;99.90;;;;;;5068923;28;20017;-66
2020/12/21 11:09:47;;;;;;;5.70;2.97;;;8.00;99.90;;;;;;5082157;28;20036;-67
2020/12/21 11:12:13;;;;;;;14.93;3.97;;;8.10;99.90;;;;;;5080290;28;20448;-68
2020/12/21 11:14:38;;;;;;;8.23;2.70;;;8.10;99.90;;;;;;5087539;28;20039;-68
2020/12/21 11:17:04;;;;;;;9.55;3.35;;;8.10;99.90;;;;;;5090814;28;20016;-68
2020/12/21 11:19:29;;;;;;;10.40;3.00;;;8.10;99.90;;;;;;5086403;28;20437;-66
2020/12/21 11:21:55;;;;;;;7.90;2.72;;;8.20;99.90;;;;;;5081704;28;20021;-66
2020/12/21 11:24:20;;;;;;;9.55;3.13;;;8.20;99.90;;;;;;5085483;28;20480;-68
2020/12/21 11:26:51;;;;;;;7.50;2.92;;;8.20;99.90;;;;;;5071616;28;20033;-68
2020/12/21 11:29:16;;;;;;;5.47;2.42;;;8.20;99.90;;;;;;5079035;28;20549;-68
2020/12/21 11:31:42;;;;;;;7.95;3.15;;;8.20;99.90;;;;;;5094109;28;20024;-67
2020/12/21 11:34:07;;;;;;;11.05;2.42;;;8.20;99.90;;;;;;5093944;28;20022;-68
2020/12/21 11:36:33;;;;;;;9.93;2.60;;;8.20;99.90;;;;;;5093556;28;20384;-68
2020/12/21 11:38:58;;;;;;;7.00;2.75;;;8.20;99.90;;;;;;5093093;28;20096;-68
2020/12/21 11:41:29;;;;;;;9.00;3.42;;;8.20;99.90;;;;;;5092085;28;20047;-68
2020/12/21 11:43:54;;;;;;;9.10;3.30;;;8.20;99.90;;;;;;5093500;28;20095;-68
2020/12/21 11:46:20;;;;;;;8.68;3.13;;;8.20;99.90;;;;;;5093261;28;20384;-67
2020/12/21 11:48:45;;;;;;;8.38;2.95;;;8.20;99.90;;;;;;5090551;28;20384;-67
2020/12/21 11:51:16;;;;;;;10.20;3.13;;;8.20;99.90;;;;;;5090570;28;20036;-68
2020/12/21 11:53:42;;;;;;;8.23;2.95;;;8.20;99.90;;;;;;5080201;28;20109;-67
2020/12/21 11:56:07;;;;;;;6.28;2.70;;;8.20;99.90;;;;;;5071212;28;20491;-68
2020/12/21 11:58:33;;;;;;;5.82;2.95;;;8.10;99.90;;;;;;5082995;28;20122;-67
2020/12/21 12:00:58;;;;;;;9.43;3.78;;;8.10;99.90;;;;;;5078265;28;20039;-67
2020/12/21 12:03:24;;;;;;;6.68;3.15;;;8.10;99.90;;;;;;5089957;28;20097;-67
2020/12/21 12:05:49;;;;;;;9.18;2.88;;;8.10;99.90;;;;;;5072208;28;20081;-67
2020/12/21 12:08:15;;;;;;;8.18;3.13;;;8.10;99.90;;;;;;5091777;28;20230;-68
2020/12/21 12:10:41;;;;;;;12.68;3.42;;;8.10;99.90;;;;;;5073680;28;20028;-68
2020/12/21 12:13:06;;;;;;;12.50;3.28;;;8.10;99.90;;;;;;5072343;28;20063;-66
2020/12/21 12:15:32;;;;;;;5.75;2.97;;;8.10;99.90;;;;;;5072516;28;20074;-67
2020/12/21 12:17:57;;;;;;;8.27;2.63;;;8.20;99.90;;;;;;5071739;28;20021;-67
2020/12/21 12:20:23;;;;;;;10.23;3.00;;;8.20;99.90;;;;;;5072083;28;20078;-67
2020/12/21 12:22:48;;;;;;;12.00;3.42;;;8.30;99.90;;;;;;5071764;28;20028;-66
2020/12/21 12:25:14;;;;;;;10.07;2.88;;;8.30;99.90;;;;;;5071537;28;20048;-67
2020/12/21 12:27:39;;;;;;;8.15;2.92;;;8.30;99.90;;;;;;5072730;28;20028;-68
2020/12/21 12:30:05;;;;;;;8.55;3.15;;;8.30;99.90;;;;;;5071660;28;20070;-68
2020/12/21 12:32:30;;;;;;;6.18;2.30;;;8.40;99.90;;;;;;5072037;28;20016;-67
2020/12/21 12:34:56;;;;;;;5.32;2.22;;;8.40;99.90;;;;;;5072540;28;20024;-68
2020/12/21 12:37:21;;;;;;;8.68;2.35;;;8.40;99.90;;;;;;5071535;28;20067;-67
2020/12/21 12:39:47;;;;;;;5.40;2.22;;;8.50;99.90;;;;;;5072267;28;20477;-68
2020/12/21 12:42:13;;;;;;;4.18;2.10;;;8.50;99.90;;;;;;5072125;28;20037;-68
2020/12/21 12:44:38;;;;;;;8.50;2.33;;;8.50;99.90;;;;;;5071982;28;20040;-68
2020/12/21 12:47:04;;;;;;;6.60;2.13;;;8.60;99.90;;;;;;5077924;28;20008;-68
2020/12/21 12:49:29;;;;;;;2.50;1.73;;;8.50;99.90;;;;;;5089145;28;20036;-68